Terminal Aerodrome Forecast
Issued by NWS

Home | Current Version | Previous Version | Text Only | Print | Product List | Glossary On
Versions: 1 2 3 4 5 6 7 8 9 10 11 12
000
FTUS46 KPDT 272300
TAFBDN
TAF
KBDN 272320Z 2800/2824 35011KT P6SM SKC
     FM280400 VRB04KT P6SM SKC
     FM280800 21005KT P6SM SKC
     FM281700 VRB06KT P6SM FEW200
     FM282100 35012G18KT P6SM SKC=

USA.gov is the U.S. government's official web portal to all federal, state and local government web resources and services.